sensor_id;sensor_type;location;lat;lon;timestamp;P1;durP1;ratioP1;P2;durP2;ratioP2
43509;SDS011;29105;57.764;40.952;2022-10-31T00:01:30;0.45;;;0.30;;
43509;SDS011;29105;57.764;40.952;2022-10-31T00:03:58;1.15;;;0.50;;
43509;SDS011;29105;57.764;40.952;2022-10-31T00:06:24;0.65;;;0.38;;
43509;SDS011;29105;57.764;40.952;2022-10-31T00:08:54;1.90;;;0.40;;
43509;SDS011;29105;57.764;40.952;2022-10-31T00:11:26;0.50;;;0.30;;
43509;SDS011;29105;57.764;40.952;2022-10-31T00:13:52;1.13;;;0.40;;
43509;SDS011;29105;57.764;40.952;2022-10-31T00:16:19;0.30;;;0.20;;
43509;SDS011;29105;57.764;40.952;2022-10-31T00:18:53;0.30;;;0.20;;
43509;SDS011;29105;57.764;40.952;2022-10-31T00:21:21;1.80;;;0.20;;
43509;SDS011;29105;57.764;40.952;2022-10-31T00:23:47;3.58;;;0.30;;
43509;SDS011;29105;57.764;40.952;2022-10-31T00:26:13;0.22;;;0.20;;
43509;SDS011;29105;57.764;40.952;2022-10-31T00:28:39;0.30;;;0.20;;
43509;SDS011;29105;57.764;40.952;2022-10-31T00:31:06;0.65;;;0.30;;
43509;SDS011;29105;57.764;40.952;2022-10-31T00:33:34;1.80;;;0.43;;
43509;SDS011;29105;57.764;40.952;2022-10-31T00:36:02;0.68;;;0.40;;
43509;SDS011;29105;57.764;40.952;2022-10-31T00:38:28;0.88;;;0.30;;
43509;SDS011;29105;57.764;40.952;2022-10-31T00:40:54;2.05;;;0.80;;
43509;SDS011;29105;57.764;40.952;2022-10-31T00:43:19;0.75;;;0.40;;
43509;SDS011;29105;57.764;40.952;2022-10-31T00:45:47;1.42;;;0.30;;
43509;SDS011;29105;57.764;40.952;2022-10-31T00:48:12;3.70;;;0.30;;
43509;SDS011;29105;57.764;40.952;2022-10-31T00:50:38;1.65;;;0.43;;
43509;SDS011;29105;57.764;40.952;2022-10-31T00:53:04;0.40;;;0.20;;
43509;SDS011;29105;57.764;40.952;2022-10-31T00:55:30;0.30;;;0.20;;
43509;SDS011;29105;57.764;40.952;2022-10-31T00:57:57;0.50;;;0.20;;
43509;SDS011;29105;57.764;40.952;2022-10-31T01:00:23;0.60;;;0.20;;
43509;SDS011;29105;57.764;40.952;2022-10-31T01:02:48;0.65;;;0.30;;
43509;SDS011;29105;57.764;40.952;2022-10-31T01:05:14;1.27;;;0.20;;
43509;SDS011;29105;57.764;40.952;2022-10-31T01:07:50;1.80;;;0.20;;
43509;SDS011;29105;57.764;40.952;2022-10-31T01:10:16;2.00;;;0.20;;
43509;SDS011;29105;57.764;40.952;2022-10-31T01:12:46;0.40;;;0.20;;
43509;SDS011;29105;57.764;40.952;2022-10-31T01:15:14;0.98;;;0.30;;
43509;SDS011;29105;57.764;40.952;2022-10-31T01:17:42;1.10;;;0.30;;
43509;SDS011;29105;57.764;40.952;2022-10-31T01:20:12;1.85;;;0.20;;
43509;SDS011;29105;57.764;40.952;2022-10-31T01:22:39;0.50;;;0.20;;
43509;SDS011;29105;57.764;40.952;2022-10-31T01:25:11;3.00;;;0.20;;
43509;SDS011;29105;57.764;40.952;2022-10-31T01:27:38;1.42;;;0.30;;
43509;SDS011;29105;57.764;40.952;2022-10-31T01:30:04;1.25;;;0.25;;
43509;SDS011;29105;57.764;40.952;2022-10-31T01:32:32;0.93;;;0.20;;
43509;SDS011;29105;57.764;40.952;2022-10-31T01:34:58;0.65;;;0.20;;
43509;SDS011;29105;57.764;40.952;2022-10-31T01:37:24;1.48;;;0.10;;
43509;SDS011;29105;57.764;40.952;2022-10-31T01:39:51;0.65;;;0.20;;
43509;SDS011;29105;57.764;40.952;2022-10-31T01:42:20;0.20;;;0.20;;
43509;SDS011;29105;57.764;40.952;2022-10-31T01:44:51;0.32;;;0.20;;
43509;SDS011;29105;57.764;40.952;2022-10-31T01:47:18;1.70;;;0.65;;
43509;SDS011;29105;57.764;40.952;2022-10-31T01:49:51;0.50;;;0.20;;
43509;SDS011;29105;57.764;40.952;2022-10-31T01:52:29;0.57;;;0.20;;
43509;SDS011;29105;57.764;40.952;2022-10-31T01:57:28;0.80;;;0.20;;
43509;SDS011;29105;57.764;40.952;2022-10-31T02:00:00;0.95;;;0.10;;
43509;SDS011;29105;57.764;40.952;2022-10-31T02:02:30;1.02;;;0.20;;
43509;SDS011;29105;57.764;40.952;2022-10-31T02:04:57;0.40;;;0.20;;
43509;SDS011;29105;57.764;40.952;2022-10-31T02:07:26;0.75;;;0.20;;
43509;SDS011;29105;57.764;40.952;2022-10-31T02:09:55;0.20;;;0.20;;
43509;SDS011;29105;57.764;40.952;2022-10-31T02:12:22;0.70;;;0.13;;
43509;SDS011;29105;57.764;40.952;2022-10-31T02:14:48;0.30;;;0.20;;
43509;SDS011;29105;57.764;40.952;2022-10-31T02:17:13;0.30;;;0.20;;
43509;SDS011;29105;57.764;40.952;2022-10-31T02:19:49;0.25;;;0.20;;
43509;SDS011;29105;57.764;40.952;2022-10-31T02:25:08;2.10;;;0.20;;
43509;SDS011;29105;57.764;40.952;2022-10-31T02:30:23;0.47;;;0.10;;
43509;SDS011;29105;57.764;40.952;2022-10-31T02:35:54;0.43;;;0.10;;
43509;SDS011;29105;57.764;40.952;2022-10-31T02:41:32;0.30;;;0.20;;
43509;SDS011;29105;57.764;40.952;2022-10-31T02:47:05;0.20;;;0.20;;
43509;SDS011;29105;57.764;40.952;2022-10-31T02:49:45;0.40;;;0.20;;
43509;SDS011;29105;57.764;40.952;2022-10-31T02:52:26;0.20;;;0.10;;
43509;SDS011;29105;57.764;40.952;2022-10-31T02:54:52;0.43;;;0.13;;
43509;SDS011;29105;57.764;40.952;2022-10-31T02:57:20;0.55;;;0.20;;
43509;SDS011;29105;57.764;40.952;2022-10-31T02:59:55;0.30;;;0.20;;
43509;SDS011;29105;57.764;40.952;2022-10-31T03:13:32;0.38;;;0.20;;
43509;SDS011;29105;57.764;40.952;2022-10-31T03:19:00;1.02;;;0.20;;
43509;SDS011;29105;57.764;40.952;2022-10-31T03:21:47;0.30;;;0.20;;
43509;SDS011;29105;57.764;40.952;2022-10-31T03:24:26;0.75;;;0.32;;
43509;SDS011;29105;57.764;40.952;2022-10-31T03:26:55;0.73;;;0.30;;
43509;SDS011;29105;57.764;40.952;2022-10-31T03:29:24;0.65;;;0.30;;
43509;SDS011;29105;57.764;40.952;2022-10-31T03:32:01;0.50;;;0.25;;
43509;SDS011;29105;57.764;40.952;2022-10-31T03:34:37;0.50;;;0.20;;
43509;SDS011;29105;57.764;40.952;2022-10-31T03:37:04;0.50;;;0.20;;
43509;SDS011;29105;57.764;40.952;2022-10-31T03:39:33;1.63;;;0.30;;
43509;SDS011;29105;57.764;40.952;2022-10-31T03:42:04;0.52;;;0.30;;
43509;SDS011;29105;57.764;40.952;2022-10-31T03:44:32;0.80;;;0.50;;
43509;SDS011;29105;57.764;40.952;2022-10-31T03:46:58;1.95;;;0.32;;
43509;SDS011;29105;57.764;40.952;2022-10-31T03:49:25;1.67;;;0.50;;
43509;SDS011;29105;57.764;40.952;2022-10-31T03:56:59;0.77;;;0.52;;
43509;SDS011;29105;57.764;40.952;2022-10-31T03:59:29;0.80;;;0.50;;
43509;SDS011;29105;57.764;40.952;2022-10-31T04:01:59;1.83;;;0.82;;
43509;SDS011;29105;57.764;40.952;2022-10-31T04:04:28;0.82;;;0.60;;
43509;SDS011;29105;57.764;40.952;2022-10-31T04:06:55;5.07;;;0.82;;
43509;SDS011;29105;57.764;40.952;2022-10-31T04:09:22;1.55;;;0.52;;
43509;SDS011;29105;57.764;40.952;2022-10-31T04:11:48;1.70;;;0.60;;
43509;SDS011;29105;57.764;40.952;2022-10-31T04:14:16;0.60;;;0.50;;
43509;SDS011;29105;57.764;40.952;2022-10-31T04:16:42;3.25;;;0.70;;
43509;SDS011;29105;57.764;40.952;2022-10-31T04:19:10;1.70;;;0.60;;
43509;SDS011;29105;57.764;40.952;2022-10-31T04:21:36;2.88;;;0.77;;
43509;SDS011;29105;57.764;40.952;2022-10-31T04:24:02;1.02;;;0.60;;
43509;SDS011;29105;57.764;40.952;2022-10-31T04:26:28;2.25;;;1.00;;
43509;SDS011;29105;57.764;40.952;2022-10-31T04:28:54;2.08;;;0.90;;
43509;SDS011;29105;57.764;40.952;2022-10-31T04:31:19;2.97;;;0.88;;
43509;SDS011;29105;57.764;40.952;2022-10-31T04:33:45;4.70;;;1.70;;
43509;SDS011;29105;57.764;40.952;2022-10-31T04:36:11;4.40;;;2.05;;
43509;SDS011;29105;57.764;40.952;2022-10-31T04:38:38;7.10;;;1.73;;
43509;SDS011;29105;57.764;40.952;2022-10-31T04:41:04;1.52;;;0.90;;
43509;SDS011;29105;57.764;40.952;2022-10-31T04:43:32;1.00;;;0.70;;
43509;SDS011;29105;57.764;40.952;2022-10-31T04:45:57;1.77;;;1.00;;
43509;SDS011;29105;57.764;40.952;2022-10-31T04:48:24;2.00;;;1.10;;
43509;SDS011;29105;57.764;40.952;2022-10-31T04:50:49;2.00;;;1.10;;
43509;SDS011;29105;57.764;40.952;2022-10-31T04:53:15;1.55;;;1.10;;
43509;SDS011;29105;57.764;40.952;2022-10-31T04:55:41;1.25;;;0.80;;
43509;SDS011;29105;57.764;40.952;2022-10-31T04:58:07;2.03;;;1.02;;
43509;SDS011;29105;57.764;40.952;2022-10-31T05:00:32;3.80;;;1.35;;
43509;SDS011;29105;57.764;40.952;2022-10-31T05:02:58;4.65;;;1.42;;
43509;SDS011;29105;57.764;40.952;2022-10-31T05:05:25;5.47;;;1.65;;
43509;SDS011;29105;57.764;40.952;2022-10-31T05:07:53;3.53;;;1.58;;
43509;SDS011;29105;57.764;40.952;2022-10-31T05:10:21;9.93;;;2.50;;
43509;SDS011;29105;57.764;40.952;2022-10-31T05:12:52;1.88;;;1.08;;
43509;SDS011;29105;57.764;40.952;2022-10-31T05:15:20;2.08;;;1.15;;
43509;SDS011;29105;57.764;40.952;2022-10-31T05:17:46;9.05;;;3.70;;
43509;SDS011;29105;57.764;40.952;2022-10-31T05:20:15;5.10;;;3.25;;
43509;SDS011;29105;57.764;40.952;2022-10-31T05:22:45;4.18;;;2.35;;
43509;SDS011;29105;57.764;40.952;2022-10-31T05:25:12;1.98;;;1.42;;
43509;SDS011;29105;57.764;40.952;2022-10-31T05:27:39;2.00;;;1.17;;
43509;SDS011;29105;57.764;40.952;2022-10-31T05:30:06;1.90;;;1.15;;
43509;SDS011;29105;57.764;40.952;2022-10-31T05:32:43;2.55;;;1.52;;
43509;SDS011;29105;57.764;40.952;2022-10-31T05:35:10;1.90;;;0.93;;
43509;SDS011;29105;57.764;40.952;2022-10-31T05:37:38;2.40;;;1.17;;
43509;SDS011;29105;57.764;40.952;2022-10-31T05:40:04;4.15;;;0.90;;
43509;SDS011;29105;57.764;40.952;2022-10-31T05:42:31;3.08;;;1.33;;
43509;SDS011;29105;57.764;40.952;2022-10-31T05:44:57;3.38;;;2.58;;
43509;SDS011;29105;57.764;40.952;2022-10-31T05:47:23;1.88;;;1.33;;
43509;SDS011;29105;57.764;40.952;2022-10-31T05:49:51;10.15;;;1.40;;
43509;SDS011;29105;57.764;40.952;2022-10-31T05:52:17;1.30;;;1.20;;
43509;SDS011;29105;57.764;40.952;2022-10-31T05:54:43;1.95;;;1.30;;
43509;SDS011;29105;57.764;40.952;2022-10-31T05:57:09;3.90;;;1.30;;
43509;SDS011;29105;57.764;40.952;2022-10-31T05:59:35;2.40;;;1.55;;
43509;SDS011;29105;57.764;40.952;2022-10-31T06:02:01;1.45;;;1.05;;
43509;SDS011;29105;57.764;40.952;2022-10-31T06:04:27;1.65;;;1.55;;
43509;SDS011;29105;57.764;40.952;2022-10-31T06:06:53;1.75;;;1.00;;
43509;SDS011;29105;57.764;40.952;2022-10-31T06:09:19;3.17;;;1.40;;
43509;SDS011;29105;57.764;40.952;2022-10-31T06:11:45;1.92;;;0.68;;
43509;SDS011;29105;57.764;40.952;2022-10-31T06:14:10;1.50;;;0.57;;
43509;SDS011;29105;57.764;40.952;2022-10-31T06:16:36;2.58;;;0.75;;
43509;SDS011;29105;57.764;40.952;2022-10-31T06:19:02;1.05;;;0.52;;
43509;SDS011;29105;57.764;40.952;2022-10-31T06:21:29;1.10;;;0.47;;
43509;SDS011;29105;57.764;40.952;2022-10-31T06:23:55;0.60;;;0.43;;
43509;SDS011;29105;57.764;40.952;2022-10-31T06:26:21;0.75;;;0.40;;
43509;SDS011;29105;57.764;40.952;2022-10-31T06:28:46;1.17;;;0.60;;
43509;SDS011;29105;57.764;40.952;2022-10-31T06:31:12;1.08;;;0.60;;
43509;SDS011;29105;57.764;40.952;2022-10-31T06:33:38;0.82;;;0.50;;
43509;SDS011;29105;57.764;40.952;2022-10-31T06:36:05;1.23;;;0.57;;
43509;SDS011;29105;57.764;40.952;2022-10-31T06:38:36;0.60;;;0.35;;
43509;SDS011;29105;57.764;40.952;2022-10-31T06:41:02;0.90;;;0.50;;
43509;SDS011;29105;57.764;40.952;2022-10-31T06:43:29;4.93;;;1.30;;
43509;SDS011;29105;57.764;40.952;2022-10-31T06:45:55;1.40;;;0.60;;
43509;SDS011;29105;57.764;40.952;2022-10-31T06:48:22;0.60;;;0.30;;
43509;SDS011;29105;57.764;40.952;2022-10-31T06:50:48;0.95;;;0.22;;
43509;SDS011;29105;57.764;40.952;2022-10-31T06:53:13;1.88;;;0.52;;
43509;SDS011;29105;57.764;40.952;2022-10-31T06:55:39;1.33;;;0.50;;
43509;SDS011;29105;57.764;40.952;2022-10-31T06:58:05;1.17;;;0.68;;
43509;SDS011;29105;57.764;40.952;2022-10-31T07:00:32;0.98;;;0.45;;
43509;SDS011;29105;57.764;40.952;2022-10-31T07:02:59;0.50;;;0.45;;
43509;SDS011;29105;57.764;40.952;2022-10-31T07:05:28;1.05;;;0.43;;
43509;SDS011;29105;57.764;40.952;2022-10-31T07:07:55;1.95;;;0.60;;
43509;SDS011;29105;57.764;40.952;2022-10-31T07:10:23;1.45;;;0.63;;
43509;SDS011;29105;57.764;40.952;2022-10-31T07:12:57;0.60;;;0.40;;
43509;SDS011;29105;57.764;40.952;2022-10-31T07:15:24;0.65;;;0.43;;
43509;SDS011;29105;57.764;40.952;2022-10-31T07:17:50;1.50;;;0.50;;
43509;SDS011;29105;57.764;40.952;2022-10-31T07:20:15;1.35;;;0.40;;
43509;SDS011;29105;57.764;40.952;2022-10-31T07:22:41;0.95;;;0.63;;
43509;SDS011;29105;57.764;40.952;2022-10-31T07:25:09;1.65;;;0.85;;
43509;SDS011;29105;57.764;40.952;2022-10-31T07:27:36;1.08;;;0.52;;
43509;SDS011;29105;57.764;40.952;2022-10-31T07:30:06;0.80;;;0.30;;
43509;SDS011;29105;57.764;40.952;2022-10-31T07:32:39;1.52;;;0.60;;
43509;SDS011;29105;57.764;40.952;2022-10-31T07:35:09;0.80;;;0.40;;
43509;SDS011;29105;57.764;40.952;2022-10-31T07:37:38;4.63;;;0.70;;
43509;SDS011;29105;57.764;40.952;2022-10-31T07:40:04;0.80;;;0.50;;
43509;SDS011;29105;57.764;40.952;2022-10-31T07:42:38;1.38;;;0.50;;
43509;SDS011;29105;57.764;40.952;2022-10-31T07:45:09;1.85;;;0.63;;
43509;SDS011;29105;57.764;40.952;2022-10-31T07:47:42;1.58;;;1.00;;
43509;SDS011;29105;57.764;40.952;2022-10-31T07:50:11;2.70;;;0.63;;
43509;SDS011;29105;57.764;40.952;2022-10-31T07:52:39;1.95;;;1.00;;
43509;SDS011;29105;57.764;40.952;2022-10-31T07:55:05;1.25;;;0.60;;
43509;SDS011;29105;57.764;40.952;2022-10-31T07:57:32;3.78;;;1.20;;
43509;SDS011;29105;57.764;40.952;2022-10-31T07:59:58;1.95;;;0.73;;
43509;SDS011;29105;57.764;40.952;2022-10-31T08:02:24;0.93;;;0.50;;
43509;SDS011;29105;57.764;40.952;2022-10-31T08:04:50;2.63;;;0.70;;
43509;SDS011;29105;57.764;40.952;2022-10-31T08:07:16;2.47;;;0.40;;
43509;SDS011;29105;57.764;40.952;2022-10-31T08:09:42;1.27;;;0.63;;
43509;SDS011;29105;57.764;40.952;2022-10-31T08:12:08;2.92;;;0.50;;
43509;SDS011;29105;57.764;40.952;2022-10-31T08:14:34;1.85;;;0.63;;
43509;SDS011;29105;57.764;40.952;2022-10-31T08:16:59;1.58;;;0.55;;
43509;SDS011;29105;57.764;40.952;2022-10-31T08:19:25;1.35;;;0.60;;
43509;SDS011;29105;57.764;40.952;2022-10-31T08:21:51;0.55;;;0.30;;
43509;SDS011;29105;57.764;40.952;2022-10-31T08:24:17;1.33;;;0.45;;
43509;SDS011;29105;57.764;40.952;2022-10-31T08:26:43;0.77;;;0.30;;
43509;SDS011;29105;57.764;40.952;2022-10-31T08:29:09;0.30;;;0.20;;
43509;SDS011;29105;57.764;40.952;2022-10-31T08:31:35;2.40;;;0.30;;
43509;SDS011;29105;57.764;40.952;2022-10-31T08:34:00;0.30;;;0.20;;
43509;SDS011;29105;57.764;40.952;2022-10-31T08:36:28;0.75;;;0.30;;
43509;SDS011;29105;57.764;40.952;2022-10-31T08:38:54;1.13;;;0.50;;
43509;SDS011;29105;57.764;40.952;2022-10-31T08:41:20;0.68;;;0.47;;
43509;SDS011;29105;57.764;40.952;2022-10-31T08:43:46;0.80;;;0.30;;
43509;SDS011;29105;57.764;40.952;2022-10-31T08:46:12;2.17;;;0.40;;
43509;SDS011;29105;57.764;40.952;2022-10-31T08:48:37;0.95;;;0.20;;
43509;SDS011;29105;57.764;40.952;2022-10-31T08:51:05;3.28;;;0.57;;
43509;SDS011;29105;57.764;40.952;2022-10-31T08:53:31;0.40;;;0.28;;
43509;SDS011;29105;57.764;40.952;2022-10-31T08:55:57;0.98;;;0.25;;
43509;SDS011;29105;57.764;40.952;2022-10-31T08:58:24;1.75;;;0.52;;
43509;SDS011;29105;57.764;40.952;2022-10-31T09:00:51;1.02;;;0.30;;
43509;SDS011;29105;57.764;40.952;2022-10-31T09:03:18;0.50;;;0.40;;
43509;SDS011;29105;57.764;40.952;2022-10-31T09:05:46;0.47;;;0.20;;
43509;SDS011;29105;57.764;40.952;2022-10-31T09:08:12;0.50;;;0.20;;
43509;SDS011;29105;57.764;40.952;2022-10-31T09:10:41;0.40;;;0.20;;
43509;SDS011;29105;57.764;40.952;2022-10-31T09:13:09;3.13;;;0.30;;
43509;SDS011;29105;57.764;40.952;2022-10-31T09:15:38;0.50;;;0.20;;
43509;SDS011;29105;57.764;40.952;2022-10-31T09:18:05;2.15;;;0.50;;
43509;SDS011;29105;57.764;40.952;2022-10-31T09:20:32;0.60;;;0.28;;
43509;SDS011;29105;57.764;40.952;2022-10-31T09:23:00;0.52;;;0.40;;
43509;SDS011;29105;57.764;40.952;2022-10-31T09:25:30;0.70;;;0.38;;
43509;SDS011;29105;57.764;40.952;2022-10-31T09:27:59;2.35;;;0.30;;
43509;SDS011;29105;57.764;40.952;2022-10-31T09:30:26;0.35;;;0.20;;
43509;SDS011;29105;57.764;40.952;2022-10-31T09:32:58;2.33;;;0.43;;
43509;SDS011;29105;57.764;40.952;2022-10-31T09:35:44;0.43;;;0.30;;
43509;SDS011;29105;57.764;40.952;2022-10-31T09:38:11;1.13;;;0.30;;
43509;SDS011;29105;57.764;40.952;2022-10-31T09:40:41;0.77;;;0.30;;
43509;SDS011;29105;57.764;40.952;2022-10-31T09:48:45;0.93;;;0.17;;
43509;SDS011;29105;57.764;40.952;2022-10-31T09:51:23;0.45;;;0.30;;
43509;SDS011;29105;57.764;40.952;2022-10-31T09:53:55;1.40;;;0.32;;
43509;SDS011;29105;57.764;40.952;2022-10-31T09:56:40;0.63;;;0.30;;
43509;SDS011;29105;57.764;40.952;2022-10-31T09:59:09;1.95;;;0.20;;
43509;SDS011;29105;57.764;40.952;2022-10-31T10:01:46;0.25;;;0.10;;
43509;SDS011;29105;57.764;40.952;2022-10-31T10:10:34;0.22;;;0.20;;
43509;SDS011;29105;57.764;40.952;2022-10-31T10:18:24;3.97;;;1.77;;
43509;SDS011;29105;57.764;40.952;2022-10-31T10:21:16;1.10;;;0.43;;
43509;SDS011;29105;57.764;40.952;2022-10-31T10:26:49;1.48;;;0.45;;
43509;SDS011;29105;57.764;40.952;2022-10-31T10:29:44;2.70;;;0.90;;
43509;SDS011;29105;57.764;40.952;2022-10-31T10:32:17;1.25;;;0.40;;
43509;SDS011;29105;57.764;40.952;2022-10-31T10:39:49;0.77;;;0.30;;
43509;SDS011;29105;57.764;40.952;2022-10-31T10:42:17;1.52;;;0.40;;
43509;SDS011;29105;57.764;40.952;2022-10-31T10:45:17;1.23;;;0.30;;
43509;SDS011;29105;57.764;40.952;2022-10-31T10:48:08;0.40;;;0.20;;
43509;SDS011;29105;57.764;40.952;2022-10-31T10:50:37;0.45;;;0.20;;
43509;SDS011;29105;57.764;40.952;2022-10-31T10:59:09;0.75;;;0.25;;
43509;SDS011;29105;57.764;40.952;2022-10-31T11:01:38;1.88;;;0.55;;
43509;SDS011;29105;57.764;40.952;2022-10-31T11:04:24;3.15;;;0.88;;
43509;SDS011;29105;57.764;40.952;2022-10-31T11:07:04;2.33;;;0.65;;
43509;SDS011;29105;57.764;40.952;2022-10-31T11:09:32;1.85;;;0.77;;
43509;SDS011;29105;57.764;40.952;2022-10-31T11:11:58;1.13;;;0.52;;
43509;SDS011;29105;57.764;40.952;2022-10-31T11:14:26;1.05;;;0.30;;
43509;SDS011;29105;57.764;40.952;2022-10-31T11:22:30;1.55;;;0.70;;
43509;SDS011;29105;57.764;40.952;2022-10-31T11:24:56;0.98;;;0.52;;
43509;SDS011;29105;57.764;40.952;2022-10-31T11:27:23;5.75;;;0.73;;
43509;SDS011;29105;57.764;40.952;2022-10-31T11:29:51;1.00;;;0.50;;
43509;SDS011;29105;57.764;40.952;2022-10-31T11:32:19;0.60;;;0.30;;
43509;SDS011;29105;57.764;40.952;2022-10-31T11:34:51;1.58;;;0.80;;
43509;SDS011;29105;57.764;40.952;2022-10-31T11:37:22;0.60;;;0.40;;
43509;SDS011;29105;57.764;40.952;2022-10-31T11:39:57;1.25;;;0.68;;
43509;SDS011;29105;57.764;40.952;2022-10-31T11:42:26;2.15;;;0.70;;
43509;SDS011;29105;57.764;40.952;2022-10-31T11:44:54;2.65;;;0.35;;
43509;SDS011;29105;57.764;40.952;2022-10-31T11:47:25;1.13;;;0.60;;
43509;SDS011;29105;57.764;40.952;2022-10-31T11:49:55;0.90;;;0.40;;
43509;SDS011;29105;57.764;40.952;2022-10-31T11:52:25;1.23;;;0.40;;
43509;SDS011;29105;57.764;40.952;2022-10-31T11:54:55;1.70;;;0.68;;
43509;SDS011;29105;57.764;40.952;2022-10-31T11:57:27;1.27;;;0.55;;
43509;SDS011;29105;57.764;40.952;2022-10-31T11:59:58;4.07;;;1.05;;
43509;SDS011;29105;57.764;40.952;2022-10-31T12:02:25;2.33;;;0.40;;
43509;SDS011;29105;57.764;40.952;2022-10-31T12:04:54;1.02;;;0.25;;
43509;SDS011;29105;57.764;40.952;2022-10-31T12:07:24;0.73;;;0.40;;
43509;SDS011;29105;57.764;40.952;2022-10-31T12:09:49;0.75;;;0.40;;
43509;SDS011;29105;57.764;40.952;2022-10-31T12:20:24;2.70;;;0.50;;
43509;SDS011;29105;57.764;40.952;2022-10-31T12:23:06;3.53;;;0.45;;
43509;SDS011;29105;57.764;40.952;2022-10-31T12:42:54;1.35;;;0.60;;
43509;SDS011;29105;57.764;40.952;2022-10-31T12:48:33;1.38;;;0.50;;
43509;SDS011;29105;57.764;40.952;2022-10-31T12:56:40;0.88;;;0.30;;
43509;SDS011;29105;57.764;40.952;2022-10-31T12:59:29;1.35;;;0.50;;
43509;SDS011;29105;57.764;40.952;2022-10-31T13:02:00;2.88;;;0.77;;
43509;SDS011;29105;57.764;40.952;2022-10-31T13:04:40;2.50;;;0.35;;
43509;SDS011;29105;57.764;40.952;2022-10-31T13:07:08;1.35;;;0.38;;
43509;SDS011;29105;57.764;40.952;2022-10-31T13:12:24;5.93;;;2.70;;
43509;SDS011;29105;57.764;40.952;2022-10-31T13:14:53;3.20;;;1.73;;
43509;SDS011;29105;57.764;40.952;2022-10-31T13:20:15;1.60;;;0.75;;
43509;SDS011;29105;57.764;40.952;2022-10-31T13:22:46;1.70;;;0.55;;
43509;SDS011;29105;57.764;40.952;2022-10-31T13:25:15;1.65;;;0.77;;
43509;SDS011;29105;57.764;40.952;2022-10-31T13:27:46;1.60;;;0.60;;
43509;SDS011;29105;57.764;40.952;2022-10-31T13:30:21;3.15;;;1.90;;
43509;SDS011;29105;57.764;40.952;2022-10-31T13:32:50;2.28;;;0.90;;
43509;SDS011;29105;57.764;40.952;2022-10-31T13:35:40;4.53;;;1.60;;
43509;SDS011;29105;57.764;40.952;2022-10-31T13:38:10;27.10;;;10.38;;
43509;SDS011;29105;57.764;40.952;2022-10-31T13:40:55;10.38;;;4.90;;
43509;SDS011;29105;57.764;40.952;2022-10-31T13:45:55;11.75;;;4.60;;
43509;SDS011;29105;57.764;40.952;2022-10-31T13:50:57;43.88;;;17.50;;
43509;SDS011;29105;57.764;40.952;2022-10-31T13:53:38;18.67;;;8.13;;
43509;SDS011;29105;57.764;40.952;2022-10-31T13:56:15;10.15;;;4.97;;
43509;SDS011;29105;57.764;40.952;2022-10-31T13:59:14;17.27;;;8.32;;
43509;SDS011;29105;57.764;40.952;2022-10-31T14:02:12;8.35;;;4.78;;
43509;SDS011;29105;57.764;40.952;2022-10-31T14:07:18;9.98;;;5.55;;
43509;SDS011;29105;57.764;40.952;2022-10-31T14:09:52;9.50;;;4.93;;
43509;SDS011;29105;57.764;40.952;2022-10-31T14:12:24;4.85;;;3.15;;
43509;SDS011;29105;57.764;40.952;2022-10-31T14:14:52;4.70;;;1.65;;
43509;SDS011;29105;57.764;40.952;2022-10-31T14:17:25;2.45;;;1.35;;
43509;SDS011;29105;57.764;40.952;2022-10-31T14:20:00;1.63;;;1.00;;
43509;SDS011;29105;57.764;40.952;2022-10-31T14:22:47;4.32;;;1.77;;
43509;SDS011;29105;57.764;40.952;2022-10-31T14:25:26;1.73;;;0.88;;
43509;SDS011;29105;57.764;40.952;2022-10-31T14:27:53;2.55;;;1.27;;
43509;SDS011;29105;57.764;40.952;2022-10-31T14:30:21;1.20;;;0.90;;
43509;SDS011;29105;57.764;40.952;2022-10-31T14:33:00;1.40;;;0.85;;
43509;SDS011;29105;57.764;40.952;2022-10-31T14:35:33;2.33;;;1.13;;
43509;SDS011;29105;57.764;40.952;2022-10-31T14:38:14;3.05;;;1.50;;
43509;SDS011;29105;57.764;40.952;2022-10-31T14:41:09;1.80;;;1.08;;
43509;SDS011;29105;57.764;40.952;2022-10-31T14:46:54;0.80;;;0.50;;
43509;SDS011;29105;57.764;40.952;2022-10-31T14:51:54;0.75;;;0.55;;
43509;SDS011;29105;57.764;40.952;2022-10-31T14:54:34;0.95;;;0.50;;
43509;SDS011;29105;57.764;40.952;2022-10-31T14:57:04;6.25;;;2.67;;
43509;SDS011;29105;57.764;40.952;2022-10-31T14:59:33;2.40;;;1.33;;
43509;SDS011;29105;57.764;40.952;2022-10-31T15:02:07;1.42;;;0.85;;
43509;SDS011;29105;57.764;40.952;2022-10-31T15:04:36;1.25;;;0.60;;
43509;SDS011;29105;57.764;40.952;2022-10-31T15:07:09;1.70;;;0.60;;
43509;SDS011;29105;57.764;40.952;2022-10-31T15:09:39;1.48;;;0.98;;
43509;SDS011;29105;57.764;40.952;2022-10-31T15:14:55;1.90;;;0.93;;
43509;SDS011;29105;57.764;40.952;2022-10-31T15:17:23;8.88;;;4.93;;
43509;SDS011;29105;57.764;40.952;2022-10-31T15:19:50;2.45;;;0.40;;
43509;SDS011;29105;57.764;40.952;2022-10-31T15:22:17;1.73;;;0.90;;
43509;SDS011;29105;57.764;40.952;2022-10-31T15:24:45;3.22;;;1.00;;
43509;SDS011;29105;57.764;40.952;2022-10-31T15:27:15;1.23;;;0.40;;
43509;SDS011;29105;57.764;40.952;2022-10-31T15:29:52;1.70;;;0.50;;
43509;SDS011;29105;57.764;40.952;2022-10-31T15:32:20;2.20;;;0.90;;
43509;SDS011;29105;57.764;40.952;2022-10-31T15:34:47;2.22;;;0.80;;
43509;SDS011;29105;57.764;40.952;2022-10-31T15:37:16;2.35;;;1.00;;
43509;SDS011;29105;57.764;40.952;2022-10-31T15:39:44;0.80;;;0.55;;
43509;SDS011;29105;57.764;40.952;2022-10-31T15:47:36;0.88;;;0.57;;
43509;SDS011;29105;57.764;40.952;2022-10-31T15:50:02;1.02;;;0.45;;
43509;SDS011;29105;57.764;40.952;2022-10-31T15:52:41;0.82;;;0.50;;
43509;SDS011;29105;57.764;40.952;2022-10-31T15:57:39;1.65;;;1.55;;
43509;SDS011;29105;57.764;40.952;2022-10-31T16:00:06;1.73;;;0.82;;
43509;SDS011;29105;57.764;40.952;2022-10-31T16:02:49;0.85;;;0.40;;
43509;SDS011;29105;57.764;40.952;2022-10-31T16:05:15;1.85;;;0.70;;
43509;SDS011;29105;57.764;40.952;2022-10-31T16:07:49;0.73;;;0.40;;
43509;SDS011;29105;57.764;40.952;2022-10-31T16:10:25;1.27;;;0.63;;
43509;SDS011;29105;57.764;40.952;2022-10-31T16:12:52;0.70;;;0.40;;
43509;SDS011;29105;57.764;40.952;2022-10-31T16:15:19;1.13;;;0.40;;
43509;SDS011;29105;57.764;40.952;2022-10-31T16:17:46;1.30;;;0.50;;
43509;SDS011;29105;57.764;40.952;2022-10-31T16:20:26;0.77;;;0.20;;
43509;SDS011;29105;57.764;40.952;2022-10-31T16:22:53;1.23;;;0.32;;
43509;SDS011;29105;57.764;40.952;2022-10-31T16:25:34;3.03;;;0.25;;
43509;SDS011;29105;57.764;40.952;2022-10-31T16:28:04;0.50;;;0.20;;
43509;SDS011;29105;57.764;40.952;2022-10-31T16:30:42;0.30;;;0.20;;
43509;SDS011;29105;57.764;40.952;2022-10-31T16:33:23;0.80;;;0.30;;
43509;SDS011;29105;57.764;40.952;2022-10-31T16:35:52;1.00;;;0.35;;
43509;SDS011;29105;57.764;40.952;2022-10-31T16:38:22;2.00;;;0.88;;
43509;SDS011;29105;57.764;40.952;2022-10-31T16:40:48;1.33;;;0.40;;
43509;SDS011;29105;57.764;40.952;2022-10-31T16:43:15;4.88;;;3.10;;
43509;SDS011;29105;57.764;40.952;2022-10-31T16:45:44;4.15;;;2.45;;
43509;SDS011;29105;57.764;40.952;2022-10-31T16:48:12;3.67;;;2.50;;
43509;SDS011;29105;57.764;40.952;2022-10-31T16:50:40;4.55;;;2.80;;
43509;SDS011;29105;57.764;40.952;2022-10-31T16:53:06;5.88;;;4.18;;
43509;SDS011;29105;57.764;40.952;2022-10-31T16:55:32;10.50;;;5.78;;
43509;SDS011;29105;57.764;40.952;2022-10-31T16:58:00;6.63;;;3.33;;
43509;SDS011;29105;57.764;40.952;2022-10-31T17:00:26;5.32;;;3.15;;
43509;SDS011;29105;57.764;40.952;2022-10-31T17:02:53;3.05;;;2.13;;
43509;SDS011;29105;57.764;40.952;2022-10-31T17:05:21;5.90;;;4.18;;